Time;durP1;ratioP1;P1;durP2;ratioP2;P2;SDS_P1;SDS_P2;PMS_P1;PMS_P2;Temp;Humidity;BMP_temperature;BMP_pressure;BME280_temperature;BME280_humidity;BME280_pressure;Samples;Min_cycle;Max_cycle;Signal;HPM_P1;HPM_P2
2022/06/14 00:01:36;;;;;;;2.30;1.80;;;;;;;;;;5065615;28;20575;-53
2022/06/14 00:04:02;;;;;;;3.53;2.20;;;;;;;;;;5066897;28;20597;-53
2022/06/14 00:06:30;;;;;;;2.20;1.93;;;;;;;;;;5064125;28;20326;-53
2022/06/14 00:08:57;;;;;;;2.13;1.87;;;;;;;;;;5067307;28;20394;-53
2022/06/14 00:11:27;;;;;;;2.30;2.10;;;;;;;;;;5064848;28;20266;-53
2022/06/14 00:13:54;;;;;;;2.40;2.17;;;;;;;;;;5066794;28;20231;-53
2022/06/14 00:16:20;;;;;;;2.30;2.10;;;;;;;;;;5065318;28;20176;-53
2022/06/14 00:18:46;;;;;;;4.57;2.17;;;;;;;;;;5066361;28;20176;-53
2022/06/14 00:21:13;;;;;;;3.40;2.17;;;;;;;;;;5065118;28;20172;-53
2022/06/14 00:23:39;;;;;;;2.63;2.00;;;;;;;;;;5065033;28;20645;-53
2022/06/14 00:26:05;;;;;;;3.33;2.00;;;;;;;;;;5046492;28;20179;-53
2022/06/14 00:28:33;;;;;;;3.90;2.33;;;;;;;;;;5064896;28;20176;-54
2022/06/14 00:31:04;;;;;;;2.37;2.00;;;;;;;;;;5065375;28;20181;-53
2022/06/14 00:33:31;;;;;;;2.30;2.10;;;;;;;;;;5066424;28;20180;-53
2022/06/14 00:35:58;;;;;;;3.73;2.30;;;;;;;;;;5062396;28;20183;-53
2022/06/14 00:38:24;;;;;;;2.63;2.10;;;;;;;;;;5054075;28;20555;-53
2022/06/14 00:40:52;;;;;;;2.77;1.90;;;;;;;;;;5063235;28;20204;-53
2022/06/14 00:43:19;;;;;;;2.43;1.90;;;;;;;;;;5066826;28;20259;-53
2022/06/14 00:45:45;;;;;;;2.90;2.40;;;;;;;;;;5064510;28;20650;-53
2022/06/14 00:48:28;;;;;;;2.00;1.77;;;;;;;;;;5063922;28;20302;-53
2022/06/14 00:51:06;;;;;;;2.83;1.97;;;;;;;;;;5064800;28;20253;-53
2022/06/14 00:53:42;;;;;;;3.57;2.03;;;;;;;;;;5048440;28;20188;-53
2022/06/14 00:56:19;;;;;;;1.80;1.60;;;;;;;;;;5065672;28;20650;-53
2022/06/14 00:58:51;;;;;;;2.17;2.07;;;;;;;;;;5065417;28;20187;-51
2022/06/14 01:01:19;;;;;;;2.13;1.93;;;;;;;;;;5063517;28;20177;-52
2022/06/14 01:03:47;;;;;;;3.17;2.10;;;;;;;;;;5064053;28;20580;-53
2022/06/14 01:06:16;;;;;;;2.77;2.17;;;;;;;;;;5055715;28;20588;-52
2022/06/14 01:08:50;;;;;;;2.90;2.20;;;;;;;;;;5060257;28;20516;-53
2022/06/14 01:11:28;;;;;;;3.70;2.30;;;;;;;;;;5062774;28;20266;-52
2022/06/14 01:13:54;;;;;;;3.30;2.40;;;;;;;;;;5048481;28;20243;-53
2022/06/14 01:16:20;;;;;;;1.90;1.80;;;;;;;;;;5061297;28;20215;-53
2022/06/14 01:18:46;;;;;;;2.37;2.00;;;;;;;;;;5062846;28;20688;-53
2022/06/14 01:21:14;;;;;;;2.03;1.90;;;;;;;;;;5063276;28;20176;-51
2022/06/14 01:23:40;;;;;;;2.50;2.30;;;;;;;;;;5065400;28;20176;-50
2022/06/14 01:26:14;;;;;;;1.93;1.73;;;;;;;;;;5063524;28;20173;-50
2022/06/14 01:28:41;;;;;;;3.93;2.33;;;;;;;;;;5063401;28;20245;-50
2022/06/14 01:31:08;;;;;;;2.37;2.10;;;;;;;;;;5060713;28;20195;-50
2022/06/14 01:33:41;;;;;;;2.30;1.87;;;;;;;;;;5064119;28;20263;-50
2022/06/14 01:36:15;;;;;;;2.83;2.10;;;;;;;;;;5064344;28;20198;-50
2022/06/14 01:38:44;;;;;;;1.97;1.80;;;;;;;;;;5063949;28;20211;-50
2022/06/14 01:41:21;;;;;;;2.00;1.80;;;;;;;;;;5063699;28;20275;-50
2022/06/14 01:44:05;;;;;;;2.30;2.03;;;;;;;;;;5046666;28;20199;-50
2022/06/14 01:46:45;;;;;;;2.47;2.27;;;;;;;;;;5060868;28;20640;-50
2022/06/14 01:52:19;;;;;;;2.90;2.10;;;;;;;;;;5076633;28;20292;-50
2022/06/14 01:55:06;;;;;;;2.23;2.00;;;;;;;;;;5084669;28;20712;-50
2022/06/14 01:57:32;;;;;;;2.53;1.90;;;;;;;;;;5079217;28;20186;-50
2022/06/14 02:00:07;;;;;;;2.30;2.10;;;;;;;;;;5083470;28;20226;-51
2022/06/14 02:02:38;;;;;;;2.47;2.27;;;;;;;;;;5082687;28;20618;-51
2022/06/14 02:05:07;;;;;;;2.20;2.00;;;;;;;;;;5084560;28;20187;-51
2022/06/14 02:07:39;;;;;;;3.13;2.00;;;;;;;;;;5083201;28;20278;-51
2022/06/14 02:10:09;;;;;;;2.93;2.00;;;;;;;;;;5084305;28;20308;-50
2022/06/14 02:12:45;;;;;;;3.43;1.93;;;;;;;;;;5083684;28;20172;-50
2022/06/14 02:15:11;;;;;;;3.03;1.80;;;;;;;;;;5072948;28;20551;-50
2022/06/14 02:17:42;;;;;;;2.40;1.87;;;;;;;;;;5083847;28;20202;-50
2022/06/14 02:20:13;;;;;;;2.00;1.80;;;;;;;;;;5081632;28;20178;-50
2022/06/14 02:22:42;;;;;;;3.07;1.97;;;;;;;;;;5082057;28;20647;-50
2022/06/14 02:25:13;;;;;;;2.67;2.10;;;;;;;;;;5085607;28;20634;-50
2022/06/14 02:27:48;;;;;;;3.37;1.90;;;;;;;;;;5081789;28;20210;-50
2022/06/14 02:30:16;;;;;;;2.10;1.90;;;;;;;;;;5083782;28;20180;-52
2022/06/14 02:32:46;;;;;;;4.73;3.23;;;;;;;;;;5082349;28;20298;-53
2022/06/14 02:35:15;;;;;;;2.00;1.63;;;;;;;;;;5084314;28;20262;-53
2022/06/14 02:37:50;;;;;;;2.93;1.80;;;;;;;;;;5083209;28;20705;-52
2022/06/14 02:40:16;;;;;;;2.60;2.13;;;;;;;;;;5065872;28;20657;-51
2022/06/14 02:42:45;;;;;;;3.53;2.37;;;;;;;;;;5084216;28;20192;-52
2022/06/14 02:45:16;;;;;;;2.37;2.10;;;;;;;;;;5084023;28;20544;-51
2022/06/14 02:47:42;;;;;;;2.53;2.10;;;;;;;;;;5084910;28;20707;-52
2022/06/14 02:50:20;;;;;;;3.77;3.47;;;;;;;;;;5082900;28;20195;-52
2022/06/14 02:53:07;;;;;;;3.20;1.97;;;;;;;;;;5060711;28;20230;-52
2022/06/14 02:55:36;;;;;;;3.00;2.73;;;;;;;;;;5055960;28;20219;-52
2022/06/14 02:58:06;;;;;;;3.23;2.23;;;;;;;;;;5074488;28;20180;-52
2022/06/14 03:00:35;;;;;;;2.17;1.90;;;;;;;;;;5085517;28;20344;-51
2022/06/14 03:03:08;;;;;;;2.27;2.00;;;;;;;;;;5094043;28;20194;-52
2022/06/14 03:05:37;;;;;;;3.53;2.27;;;;;;;;;;5083149;28;20235;-52
2022/06/14 03:08:08;;;;;;;2.40;2.00;;;;;;;;;;5088427;28;20199;-52
2022/06/14 03:10:40;;;;;;;3.70;1.77;;;;;;;;;;5078123;28;20705;-52
2022/06/14 03:13:12;;;;;;;2.40;2.20;;;;;;;;;;5088831;28;20480;-52
2022/06/14 03:15:41;;;;;;;2.30;2.10;;;;;;;;;;5083104;28;20618;-52
2022/06/14 03:18:21;;;;;;;4.30;3.90;;;;;;;;;;5084106;28;20266;-52
2022/06/14 03:20:53;;;;;;;2.20;1.87;;;;;;;;;;5080994;28;20204;-52
2022/06/14 03:23:22;;;;;;;2.47;1.90;;;;;;;;;;5096460;28;20188;-52
2022/06/14 03:25:56;;;;;;;4.20;2.87;;;;;;;;;;5083742;28;20186;-52
2022/06/14 03:28:22;;;;;;;2.57;2.37;;;;;;;;;;5081572;28;20205;-51
2022/06/14 03:30:51;;;;;;;2.43;2.07;;;;;;;;;;5078644;28;20184;-52
2022/06/14 03:33:26;;;;;;;4.30;4.00;;;;;;;;;;5084307;28;20577;-52
2022/06/14 03:35:53;;;;;;;2.10;1.90;;;;;;;;;;5085862;28;20270;-52
2022/06/14 03:38:19;;;;;;;2.23;1.93;;;;;;;;;;5091065;28;20642;-52
2022/06/14 03:40:46;;;;;;;2.20;2.00;;;;;;;;;;5095072;28;20245;-52
2022/06/14 03:43:13;;;;;;;3.07;2.00;;;;;;;;;;5104703;28;20180;-50
2022/06/14 03:45:45;;;;;;;3.90;2.13;;;;;;;;;;5105888;28;20679;-51
2022/06/14 03:48:12;;;;;;;1.90;1.80;;;;;;;;;;5104318;28;20295;-52
2022/06/14 03:50:47;;;;;;;2.23;1.80;;;;;;;;;;5087840;28;20200;-57
2022/06/14 03:53:32;;;;;;;2.67;2.07;;;;;;;;;;5082128;28;20639;-52
2022/06/14 03:56:04;;;;;;;2.17;1.97;;;;;;;;;;5085381;28;20172;-52
2022/06/14 03:58:39;;;;;;;1.70;1.60;;;;;;;;;;5094496;28;20191;-52
2022/06/14 04:01:13;;;;;;;2.97;2.67;;;;;;;;;;5085391;28;20194;-52
2022/06/14 04:03:59;;;;;;;2.17;1.93;;;;;;;;;;5088787;28;20192;-51
2022/06/14 04:06:28;;;;;;;1.70;1.50;;;;;;;;;;5051718;28;20528;-52
2022/06/14 04:08:57;;;;;;;2.20;2.00;;;;;;;;;;5087880;28;20172;-52
2022/06/14 04:11:26;;;;;;;2.50;1.87;;;;;;;;;;5073227;28;20172;-52
2022/06/14 04:13:55;;;;;;;2.23;1.67;;;;;;;;;;5088973;28;20201;-52
2022/06/14 04:16:34;;;;;;;2.77;2.47;;;;;;;;;;5089769;28;20203;-52
2022/06/14 04:19:06;;;;;;;2.20;1.60;;;;;;;;;;5088373;28;20176;-52
2022/06/14 04:21:44;;;;;;;2.47;2.23;;;;;;;;;;5087992;28;20183;-52
2022/06/14 04:24:14;;;;;;;2.50;1.77;;;;;;;;;;5089569;28;20188;-52
2022/06/14 04:26:49;;;;;;;2.47;1.80;;;;;;;;;;5088746;28;20533;-52
2022/06/14 04:29:21;;;;;;;2.70;2.50;;;;;;;;;;5087114;28;20171;-52
2022/06/14 04:31:50;;;;;;;2.00;1.87;;;;;;;;;;5084780;28;20228;-52
2022/06/14 04:34:23;;;;;;;1.97;1.67;;;;;;;;;;5090706;28;20183;-52
2022/06/14 04:37:01;;;;;;;2.30;2.10;;;;;;;;;;5109536;28;20196;-53
2022/06/14 04:39:31;;;;;;;3.00;1.90;;;;;;;;;;5090134;28;20696;-53
2022/06/14 04:42:08;;;;;;;1.60;1.50;;;;;;;;;;5079147;28;20181;-52
2022/06/14 04:44:38;;;;;;;2.33;2.10;;;;;;;;;;5093169;28;20186;-53
2022/06/14 04:47:11;;;;;;;3.13;2.23;;;;;;;;;;5087534;28;20342;-53
2022/06/14 04:49:47;;;;;;;2.97;2.00;;;;;;;;;;5063862;28;20172;-52
2022/06/14 04:52:28;;;;;;;3.33;3.03;;;;;;;;;;5087590;27;20741;-52
2022/06/14 04:54:58;;;;;;;3.67;2.17;;;;;;;;;;5077333;28;20180;-52
2022/06/14 04:57:33;;;;;;;2.20;1.97;;;;;;;;;;5077191;28;20190;-52
2022/06/14 05:00:08;;;;;;;2.90;1.93;;;;;;;;;;5087129;28;20293;-52
2022/06/14 05:02:36;;;;;;;4.33;2.00;;;;;;;;;;5083900;28;20216;-53
2022/06/14 05:05:15;;;;;;;2.57;1.83;;;;;;;;;;5087672;28;20606;-52
2022/06/14 05:07:44;;;;;;;2.03;1.83;;;;;;;;;;5087757;28;20756;-52
2022/06/14 05:10:14;;;;;;;4.33;2.50;;;;;;;;;;5087834;28;20172;-52
2022/06/14 05:12:46;;;;;;;2.97;2.10;;;;;;;;;;5087577;28;20711;-53
2022/06/14 05:15:12;;;;;;;2.20;1.80;;;;;;;;;;5066920;28;20179;-52
2022/06/14 05:17:45;;;;;;;3.47;2.10;;;;;;;;;;5107934;28;20178;-53
2022/06/14 05:20:17;;;;;;;3.65;2.60;;;;;;;;;;5096583;28;20431;-52
2022/06/14 05:22:43;;;;;;;3.23;2.00;;;;;;;;;;5083079;28;20670;-53
2022/06/14 05:25:10;;;;;;;3.23;2.63;;;;;;;;;;5062570;28;20179;-53
2022/06/14 05:27:48;;;;;;;3.57;2.43;;;;;;;;;;5092790;28;20196;-52
2022/06/14 05:30:31;;;;;;;4.70;2.73;;;;;;;;;;5085224;28;20198;-52
2022/06/14 05:33:03;;;;;;;3.47;2.20;;;;;;;;;;5086352;28;20174;-52
2022/06/14 05:35:33;;;;;;;2.80;2.37;;;;;;;;;;5085955;28;20393;-52
2022/06/14 05:38:08;;;;;;;4.20;2.70;;;;;;;;;;5086051;28;20600;-52
2022/06/14 05:40:37;;;;;;;2.10;1.90;;;;;;;;;;5086348;28;20709;-53
2022/06/14 05:43:14;;;;;;;4.03;2.77;;;;;;;;;;5083630;28;20675;-52
2022/06/14 05:45:43;;;;;;;3.20;2.17;;;;;;;;;;5092988;28;20183;-52
2022/06/14 05:48:12;;;;;;;3.37;2.27;;;;;;;;;;5077814;28;20274;-52
2022/06/14 05:50:47;;;;;;;3.60;2.70;;;;;;;;;;5086479;28;20210;-52
2022/06/14 05:53:40;;;;;;;3.47;2.43;;;;;;;;;;5085485;28;20787;-52
2022/06/14 05:56:09;;;;;;;2.83;2.23;;;;;;;;;;5086706;28;20229;-52
2022/06/14 05:58:39;;;;;;;2.97;2.03;;;;;;;;;;5093869;28;20192;-52
2022/06/14 06:01:11;;;;;;;3.33;2.23;;;;;;;;;;5079022;28;20182;-53
2022/06/14 06:03:56;;;;;;;4.03;2.37;;;;;;;;;;5084278;28;20249;-52
2022/06/14 06:06:24;;;;;;;2.93;2.13;;;;;;;;;;5078790;28;20185;-52
2022/06/14 06:09:23;;;;;;;2.90;2.13;;;;;;;;;;5084015;28;20278;-52
2022/06/14 06:11:52;;;;;;;3.93;2.83;;;;;;;;;;5051601;28;20211;-52
2022/06/14 06:14:32;;;;;;;3.87;2.30;;;;;;;;;;5080648;28;20262;-52
2022/06/14 06:17:07;;;;;;;5.10;2.00;;;;;;;;;;5080892;28;20185;-52
2022/06/14 06:19:37;;;;;;;5.43;2.30;;;;;;;;;;5078908;28;20183;-52
2022/06/14 06:22:07;;;;;;;4.77;2.97;;;;;;;;;;5089284;28;20634;-52
2022/06/14 06:24:44;;;;;;;4.10;2.20;;;;;;;;;;5084367;28;20681;-52
2022/06/14 06:27:11;;;;;;;3.97;2.30;;;;;;;;;;5086672;28;20506;-52
2022/06/14 06:29:43;;;;;;;3.83;2.43;;;;;;;;;;5086922;28;20584;-52
2022/06/14 06:32:09;;;;;;;4.63;2.40;;;;;;;;;;5086022;28;20499;-52
2022/06/14 06:34:36;;;;;;;5.03;3.10;;;;;;;;;;5087763;28;20189;-52
2022/06/14 06:37:05;;;;;;;6.17;3.03;;;;;;;;;;5084049;28;20491;-52
2022/06/14 06:39:44;;;;;;;5.20;2.33;;;;;;;;;;5078354;28;20191;-52
2022/06/14 06:42:21;;;;;;;5.50;2.87;;;;;;;;;;5084726;28;20167;-53
2022/06/14 06:45:02;;;;;;;4.13;2.40;;;;;;;;;;5092955;28;20597;-52
2022/06/14 06:47:30;;;;;;;4.87;2.70;;;;;;;;;;5090186;28;20205;-52
2022/06/14 06:50:11;;;;;;;2.93;2.03;;;;;;;;;;5094309;28;20489;-52
2022/06/14 06:53:03;;;;;;;2.60;2.40;;;;;;;;;;5094849;27;20242;-52
2022/06/14 06:55:32;;;;;;;4.13;2.57;;;;;;;;;;5051764;28;20196;-52
2022/06/14 06:57:59;;;;;;;2.97;2.00;;;;;;;;;;5067516;28;20562;-52
2022/06/14 07:00:27;;;;;;;6.83;2.80;;;;;;;;;;5064984;28;20184;-52
2022/06/14 07:02:59;;;;;;;5.03;2.50;;;;;;;;;;5065751;28;20208;-53
2022/06/14 07:05:25;;;;;;;4.23;2.40;;;;;;;;;;5076442;28;20183;-53
2022/06/14 07:07:54;;;;;;;6.37;2.97;;;;;;;;;;5066546;28;20768;-52
2022/06/14 07:10:23;;;;;;;7.63;3.30;;;;;;;;;;5065002;28;20257;-53
2022/06/14 07:12:57;;;;;;;6.93;2.93;;;;;;;;;;5067205;28;20263;-52
2022/06/14 07:15:35;;;;;;;5.70;3.20;;;;;;;;;;5065039;28;20683;-53
2022/06/14 07:18:06;;;;;;;5.00;3.00;;;;;;;;;;5063862;28;20743;-52
2022/06/14 07:20:33;;;;;;;4.30;2.63;;;;;;;;;;5063271;28;20654;-52
2022/06/14 07:23:05;;;;;;;14.70;4.27;;;;;;;;;;5065639;28;20368;-52
2022/06/14 07:25:37;;;;;;;4.60;2.70;;;;;;;;;;5064459;28;20195;-53
2022/06/14 07:28:14;;;;;;;6.40;2.67;;;;;;;;;;5067636;28;20197;-53
2022/06/14 07:30:49;;;;;;;5.00;2.87;;;;;;;;;;5067130;28;20188;-53
2022/06/14 07:33:16;;;;;;;6.93;2.80;;;;;;;;;;5066570;28;20213;-53
2022/06/14 07:35:48;;;;;;;3.83;2.47;;;;;;;;;;5060066;28;20287;-52
2022/06/14 07:38:18;;;;;;;5.17;2.60;;;;;;;;;;5065816;28;20189;-52
2022/06/14 07:40:50;;;;;;;3.53;2.40;;;;;;;;;;5067158;28;20706;-52
2022/06/14 07:43:23;;;;;;;4.67;2.73;;;;;;;;;;5068232;28;20264;-53
2022/06/14 07:45:50;;;;;;;4.67;3.90;;;;;;;;;;5068920;28;20239;-53
2022/06/14 07:48:22;;;;;;;5.03;2.93;;;;;;;;;;5051047;28;20232;-53
2022/06/14 07:50:55;;;;;;;6.43;2.90;;;;;;;;;;5068065;28;20537;-53
2022/06/14 07:53:30;;;;;;;7.63;3.90;;;;;;;;;;5069895;28;20226;-53
2022/06/14 07:55:59;;;;;;;6.90;3.10;;;;;;;;;;5075704;28;20179;-53
2022/06/14 07:58:31;;;;;;;6.50;3.70;;;;;;;;;;5075440;28;20540;-54
2022/06/14 08:01:08;;;;;;;8.83;3.70;;;;;;;;;;5069361;28;20178;-53
2022/06/14 08:03:52;;;;;;;5.33;3.23;;;;;;;;;;5068141;28;20655;-53
2022/06/14 08:06:23;;;;;;;7.30;3.03;;;;;;;;;;5068209;28;20604;-53
2022/06/14 08:08:54;;;;;;;4.77;3.07;;;;;;;;;;5067741;28;20285;-53
2022/06/14 08:11:26;;;;;;;4.77;3.17;;;;;;;;;;5063242;28;20624;-53
2022/06/14 08:13:59;;;;;;;7.83;4.97;;;;;;;;;;5061689;28;20206;-54
2022/06/14 08:16:26;;;;;;;11.97;5.00;;;;;;;;;;5059360;28;20258;-55
2022/06/14 08:19:04;;;;;;;6.60;4.73;;;;;;;;;;5068419;28;20717;-54
2022/06/14 08:21:42;;;;;;;6.47;4.47;;;;;;;;;;5063118;28;20615;-54
2022/06/14 08:24:21;;;;;;;9.10;5.27;;;;;;;;;;5062885;28;20540;-53
2022/06/14 08:26:49;;;;;;;8.40;4.47;;;;;;;;;;5054464;28;20204;-54
2022/06/14 08:29:22;;;;;;;7.50;5.27;;;;;;;;;;5062911;28;20246;-54
2022/06/14 08:31:51;;;;;;;10.07;5.83;;;;;;;;;;5063447;28;20180;-54
2022/06/14 08:34:36;;;;;;;10.43;5.60;;;;;;;;;;5066233;28;20180;-54
2022/06/14 08:37:15;;;;;;;11.73;6.13;;;;;;;;;;5060851;28;20196;-55
2022/06/14 08:39:47;;;;;;;11.97;6.27;;;;;;;;;;5060451;28;20195;-54
2022/06/14 08:42:43;;;;;;;12.80;6.37;;;;;;;;;;5048307;28;20612;-55
2022/06/14 08:45:13;;;;;;;15.33;5.60;;;;;;;;;;5043291;28;20630;-54
2022/06/14 08:47:42;;;;;;;13.00;5.80;;;;;;;;;;5062749;28;20201;-54
2022/06/14 08:50:45;;;;;;;8.30;4.67;;;;;;;;;;5064192;28;20291;-54
2022/06/14 08:53:30;;;;;;;10.10;6.47;;;;;;;;;;4977877;28;20230;-54
2022/06/14 08:55:56;;;;;;;11.37;5.63;;;;;;;;;;5076422;28;20206;-55
2022/06/14 08:58:41;;;;;;;11.93;6.23;;;;;;;;;;5087668;28;20463;-55
2022/06/14 09:01:22;;;;;;;8.20;5.40;;;;;;;;;;5085418;28;20786;-56
2022/06/14 09:04:00;;;;;;;9.00;5.77;;;;;;;;;;5080752;28;20187;-55
2022/06/14 09:06:40;;;;;;;7.97;5.40;;;;;;;;;;5080591;28;20668;-55
2022/06/14 09:09:15;;;;;;;9.47;6.50;;;;;;;;;;5082574;28;20233;-54
2022/06/14 09:11:51;;;;;;;10.07;6.17;;;;;;;;;;5083167;28;20270;-54
2022/06/14 09:14:26;;;;;;;8.80;5.70;;;;;;;;;;5094472;28;20183;-54
2022/06/14 09:16:55;;;;;;;13.73;6.70;;;;;;;;;;5085595;28;20266;-54
2022/06/14 09:19:24;;;;;;;10.23;6.17;;;;;;;;;;5085242;28;20664;-53
2022/06/14 09:22:16;;;;;;;11.07;5.67;;;;;;;;;;5079104;28;20233;-54
2022/06/14 09:24:54;;;;;;;12.00;6.53;;;;;;;;;;5057188;28;20188;-54
2022/06/14 09:27:46;;;;;;;13.80;6.70;;;;;;;;;;5083542;28;20211;-54
2022/06/14 09:30:29;;;;;;;11.10;6.10;;;;;;;;;;5066296;28;20176;-54
2022/06/14 09:33:12;;;;;;;15.60;6.93;;;;;;;;;;5082675;28;20176;-54
2022/06/14 09:35:39;;;;;;;9.20;5.87;;;;;;;;;;5080245;28;20175;-54
2022/06/14 09:38:27;;;;;;;10.13;6.40;;;;;;;;;;5081956;28;20188;-53
2022/06/14 09:41:13;;;;;;;7.17;5.43;;;;;;;;;;5083879;28;20177;-53
2022/06/14 09:43:57;;;;;;;13.27;6.20;;;;;;;;;;5081250;28;20292;-53
2022/06/14 09:46:55;;;;;;;12.53;6.23;;;;;;;;;;5072129;28;20207;-54
2022/06/14 09:49:21;;;;;;;11.43;6.33;;;;;;;;;;5040034;28;20195;-53
2022/06/14 09:52:00;;;;;;;8.13;6.00;;;;;;;;;;5083874;28;20208;-53
2022/06/14 09:54:38;;;;;;;10.57;6.13;;;;;;;;;;5079900;28;20194;-53
2022/06/14 09:57:23;;;;;;;8.40;5.70;;;;;;;;;;5072724;28;20254;-52
2022/06/14 10:00:01;;;;;;;10.80;6.07;;;;;;;;;;5086219;28;20612;-52
2022/06/14 10:02:33;;;;;;;9.83;5.67;;;;;;;;;;5085546;28;20183;-52
2022/06/14 10:05:16;;;;;;;7.80;4.83;;;;;;;;;;5084446;28;20265;-52
2022/06/14 10:07:42;;;;;;;9.60;4.97;;;;;;;;;;5086964;28;20249;-52
2022/06/14 10:10:11;;;;;;;15.33;6.70;;;;;;;;;;5095318;28;20171;-52
2022/06/14 10:13:04;;;;;;;9.13;6.10;;;;;;;;;;5077076;28;20176;-52
2022/06/14 10:15:30;;;;;;;7.60;5.43;;;;;;;;;;5082010;28;20219;-52
2022/06/14 10:18:12;;;;;;;10.60;5.73;;;;;;;;;;5081257;28;20191;-53
2022/06/14 10:20:43;;;;;;;11.67;7.10;;;;;;;;;;5090601;28;20783;-52
2022/06/14 10:23:28;;;;;;;11.03;6.83;;;;;;;;;;5065331;28;20167;-53
2022/06/14 10:28:52;;;;;;;13.53;7.20;;;;;;;;;;5097655;28;20327;-52
2022/06/14 10:31:24;;;;;;;11.67;7.77;;;;;;;;;;5083535;28;20180;-53
2022/06/14 10:34:09;;;;;;;12.67;7.47;;;;;;;;;;5071338;28;20180;-53
2022/06/14 10:36:46;;;;;;;8.43;6.60;;;;;;;;;;5077053;28;20188;-53
2022/06/14 10:39:44;;;;;;;8.73;7.20;;;;;;;;;;5059659;28;20649;-53
2022/06/14 10:42:16;;;;;;;8.00;7.03;;;;;;;;;;5027649;28;20635;-53
2022/06/14 10:45:01;;;;;;;10.37;6.83;;;;;;;;;;5081262;28;20189;-53
2022/06/14 10:47:43;;;;;;;8.57;6.10;;;;;;;;;;5082675;28;20203;-53
2022/06/14 10:50:22;;;;;;;8.53;6.00;;;;;;;;;;5075998;28;20640;-53
2022/06/14 10:52:54;;;;;;;9.07;6.47;;;;;;;;;;5081116;28;20568;-53
2022/06/14 10:55:20;;;;;;;8.13;5.90;;;;;;;;;;5097557;28;20171;-53
2022/06/14 10:57:55;;;;;;;11.20;6.67;;;;;;;;;;5081832;28;20195;-53
2022/06/14 11:00:33;;;;;;;7.67;5.53;;;;;;;;;;5086777;28;20190;-52
2022/06/14 11:02:59;;;;;;;10.10;6.63;;;;;;;;;;5086685;28;20169;-53
2022/06/14 11:05:44;;;;;;;6.77;5.70;;;;;;;;;;5089110;28;20195;-53
2022/06/14 11:08:36;;;;;;;10.70;6.90;;;;;;;;;;5082829;28;20683;-52
2022/06/14 11:11:06;;;;;;;8.27;6.33;;;;;;;;;;5078467;28;20493;-52
2022/06/14 11:13:51;;;;;;;9.70;6.67;;;;;;;;;;5090803;28;20161;-54
2022/06/14 11:16:17;;;;;;;11.03;6.63;;;;;;;;;;5093843;28;20646;-53
2022/06/14 11:18:43;;;;;;;8.57;6.37;;;;;;;;;;5088520;28;20252;-53
2022/06/14 11:21:18;;;;;;;6.50;5.87;;;;;;;;;;5102911;28;20278;-53
2022/06/14 11:23:53;;;;;;;6.60;5.50;;;;;;;;;;5088156;28;20365;-53
2022/06/14 11:26:24;;;;;;;9.00;5.80;;;;;;;;;;5070180;28;20365;-52
2022/06/14 11:28:58;;;;;;;7.13;6.23;;;;;;;;;;5080520;28;20210;-52
2022/06/14 11:31:26;;;;;;;6.93;6.07;;;;;;;;;;5072718;28;20190;-52
2022/06/14 11:34:13;;;;;;;8.23;5.63;;;;;;;;;;5089507;28;20175;-52
2022/06/14 11:37:02;;;;;;;6.80;5.00;;;;;;;;;;5049227;28;20197;-52
2022/06/14 11:39:31;;;;;;;7.73;5.07;;;;;;;;;;5087914;28;20185;-54
2022/06/14 11:42:00;;;;;;;6.10;5.50;;;;;;;;;;5110741;28;20163;-53
2022/06/14 11:44:32;;;;;;;4.87;4.40;;;;;;;;;;5096083;28;20179;-53
2022/06/14 11:47:27;;;;;;;6.00;4.93;;;;;;;;;;5089721;28;20676;-52
2022/06/14 11:50:02;;;;;;;8.53;4.53;;;;;;;;;;5018672;28;20690;-53
2022/06/14 11:52:30;;;;;;;6.60;4.77;;;;;;;;;;5087265;28;20247;-53
2022/06/14 11:55:16;;;;;;;8.43;5.43;;;;;;;;;;5071437;28;20667;-53
2022/06/14 11:58:01;;;;;;;7.07;5.33;;;;;;;;;;5080142;28;20196;-53
2022/06/14 12:00:30;;;;;;;5.33;4.60;;;;;;;;;;5085790;28;20176;-53
2022/06/14 12:03:07;;;;;;;6.13;4.67;;;;;;;;;;5080948;28;20187;-53
2022/06/14 12:05:54;;;;;;;5.03;4.13;;;;;;;;;;5068855;28;20186;-53
2022/06/14 12:08:35;;;;;;;6.10;4.43;;;;;;;;;;5082882;28;20242;-53
2022/06/14 12:11:20;;;;;;;4.80;4.27;;;;;;;;;;5086570;28;20497;-53
2022/06/14 12:14:01;;;;;;;4.67;4.27;;;;;;;;;;5074311;28;20564;-53
2022/06/14 12:16:48;;;;;;;4.63;4.17;;;;;;;;;;5069489;28;20193;-53
2022/06/14 12:19:21;;;;;;;5.87;4.13;;;;;;;;;;5088714;28;20160;-53
2022/06/14 12:21:47;;;;;;;4.37;3.90;;;;;;;;;;5084620;28;20246;-54
2022/06/14 12:24:21;;;;;;;4.30;3.90;;;;;;;;;;5081197;28;20192;-53
2022/06/14 12:27:02;;;;;;;6.03;3.77;;;;;;;;;;5083590;28;20188;-53
2022/06/14 12:29:32;;;;;;;6.53;4.20;;;;;;;;;;5077904;28;20254;-54
2022/06/14 12:32:06;;;;;;;7.80;4.40;;;;;;;;;;5080492;28;20255;-54
2022/06/14 12:34:38;;;;;;;4.70;3.77;;;;;;;;;;5088706;28;20179;-54
2022/06/14 12:37:40;;;;;;;6.40;4.00;;;;;;;;;;5083299;28;20229;-54
2022/06/14 12:40:20;;;;;;;5.57;3.37;;;;;;;;;;4978767;28;20718;-54
2022/06/14 12:43:17;;;;;;;7.00;3.63;;;;;;;;;;5074611;28;20212;-54
2022/06/14 12:45:51;;;;;;;6.07;3.70;;;;;;;;;;5075973;28;20184;-54
2022/06/14 12:48:46;;;;;;;4.20;3.40;;;;;;;;;;5067721;28;20196;-54
2022/06/14 12:51:31;;;;;;;5.17;3.70;;;;;;;;;;5058151;28;20242;-54
2022/06/14 12:54:36;;;;;;;4.80;3.10;;;;;;;;;;5068602;28;20623;-54
2022/06/14 12:57:22;;;;;;;3.57;3.27;;;;;;;;;;5005585;28;20209;-54
2022/06/14 12:59:57;;;;;;;6.70;3.40;;;;;;;;;;5000161;28;20206;-54
2022/06/14 13:02:26;;;;;;;3.73;3.40;;;;;;;;;;5047101;28;20199;-54
2022/06/14 13:05:05;;;;;;;4.47;2.90;;;;;;;;;;5067320;28;20602;-54
2022/06/14 13:08:10;;;;;;;6.23;3.47;;;;;;;;;;5065727;28;20299;-54
2022/06/14 13:10:54;;;;;;;5.40;3.40;;;;;;;;;;4984910;28;20179;-54
2022/06/14 13:13:32;;;;;;;4.17;3.43;;;;;;;;;;4981353;28;20230;-54
2022/06/14 13:16:15;;;;;;;5.53;3.30;;;;;;;;;;5022072;28;20276;-54
2022/06/14 13:19:00;;;;;;;4.50;3.57;;;;;;;;;;5066422;28;20263;-54
2022/06/14 13:21:46;;;;;;;4.20;3.20;;;;;;;;;;5065708;28;20638;-54
2022/06/14 13:24:12;;;;;;;5.03;3.38;;;;;;;;;;5050662;28;20444;-54
2022/06/14 13:26:38;;;;;;;5.43;3.10;;;;;;;;;;5066777;28;20230;-54
2022/06/14 13:29:07;;;;;;;4.47;3.33;;;;;;;;;;5066260;28;20639;-53
2022/06/14 13:31:42;;;;;;;3.73;2.80;;;;;;;;;;5066602;28;20185;-54
2022/06/14 13:34:16;;;;;;;5.30;3.57;;;;;;;;;;5064662;28;20230;-54
2022/06/14 13:36:48;;;;;;;3.30;2.80;;;;;;;;;;5067085;28;20184;-54
2022/06/14 13:39:33;;;;;;;4.00;3.13;;;;;;;;;;5065184;28;20246;-54
2022/06/14 13:42:03;;;;;;;4.73;3.57;;;;;;;;;;5063593;28;20180;-53
2022/06/14 13:44:36;;;;;;;3.90;3.03;;;;;;;;;;5061431;28;20176;-54
2022/06/14 13:47:05;;;;;;;4.87;3.17;;;;;;;;;;5061209;28;20195;-53
2022/06/14 13:49:34;;;;;;;4.83;3.30;;;;;;;;;;5067010;28;20519;-53
2022/06/14 13:52:07;;;;;;;4.20;2.63;;;;;;;;;;5066938;28;20280;-53
2022/06/14 13:54:40;;;;;;;6.00;2.93;;;;;;;;;;5071153;28;20195;-53
2022/06/14 13:57:12;;;;;;;5.00;4.47;;;;;;;;;;5067767;28;20188;-53
2022/06/14 13:59:40;;;;;;;4.47;3.80;;;;;;;;;;5072114;28;20175;-53
2022/06/14 14:02:06;;;;;;;4.10;3.20;;;;;;;;;;5064216;28;20181;-53
2022/06/14 14:04:38;;;;;;;4.60;2.80;;;;;;;;;;5061817;28;20181;-53
2022/06/14 14:07:11;;;;;;;2.93;2.67;;;;;;;;;;5056221;28;20192;-53
2022/06/14 14:09:43;;;;;;;3.63;3.03;;;;;;;;;;5058291;28;20177;-54
2022/06/14 14:12:14;;;;;;;3.70;2.97;;;;;;;;;;5060766;28;20177;-53
2022/06/14 14:14:58;;;;;;;3.40;2.93;;;;;;;;;;5059698;28;20217;-54
2022/06/14 14:17:37;;;;;;;3.20;2.90;;;;;;;;;;5060034;28;20198;-54
2022/06/14 14:20:03;;;;;;;3.43;2.63;;;;;;;;;;5063832;28;20239;-54
2022/06/14 14:22:34;;;;;;;5.77;2.70;;;;;;;;;;5063211;28;20562;-54
2022/06/14 14:25:06;;;;;;;3.77;2.70;;;;;;;;;;5066250;28;20238;-54
2022/06/14 14:27:42;;;;;;;3.23;2.70;;;;;;;;;;5064189;28;20192;-54
2022/06/14 14:30:29;;;;;;;3.07;2.77;;;;;;;;;;5062681;28;20213;-54
2022/06/14 14:32:58;;;;;;;3.93;2.50;;;;;;;;;;5068398;28;20184;-54
2022/06/14 14:35:25;;;;;;;2.87;2.67;;;;;;;;;;5061244;28;20246;-54
2022/06/14 14:38:05;;;;;;;3.77;2.80;;;;;;;;;;5060773;28;20180;-54
2022/06/14 14:40:33;;;;;;;4.17;3.40;;;;;;;;;;5068283;28;20188;-54
2022/06/14 14:43:02;;;;;;;4.90;2.90;;;;;;;;;;5044209;28;20189;-54
2022/06/14 14:45:44;;;;;;;5.90;2.73;;;;;;;;;;5062727;28;20629;-54
2022/06/14 14:48:20;;;;;;;4.33;2.87;;;;;;;;;;5065164;28;20227;-54
2022/06/14 14:50:52;;;;;;;3.93;2.87;;;;;;;;;;5062747;28;20212;-54
2022/06/14 14:53:18;;;;;;;3.30;2.57;;;;;;;;;;5069805;28;20730;-55
2022/06/14 14:56:00;;;;;;;4.40;3.07;;;;;;;;;;5061838;28;20229;-55
2022/06/14 14:58:35;;;;;;;4.70;3.10;;;;;;;;;;5082476;28;20616;-55
2022/06/14 15:06:46;;;;;;;6.27;3.40;;;;;;;;;;5086065;28;20202;-55
2022/06/14 15:09:25;;;;;;;5.00;2.70;;;;;;;;;;5084441;28;20200;-54
2022/06/14 15:11:54;;;;;;;4.87;2.80;;;;;;;;;;5066101;28;20187;-54
2022/06/14 15:14:23;;;;;;;3.97;3.37;;;;;;;;;;5066913;28;20631;-54
2022/06/14 15:19:54;;;;;;;4.03;2.93;;;;;;;;;;5086931;28;20633;-54
2022/06/14 15:22:35;;;;;;;3.77;2.80;;;;;;;;;;5066064;28;20168;-54
2022/06/14 15:25:07;;;;;;;4.27;2.93;;;;;;;;;;5084819;28;20178;-54
2022/06/14 15:27:33;;;;;;;4.90;3.53;;;;;;;;;;5066848;28;20196;-54
2022/06/14 15:30:00;;;;;;;6.70;3.27;;;;;;;;;;5086290;28;20180;-54
2022/06/14 15:32:28;;;;;;;4.13;2.90;;;;;;;;;;5067187;28;20579;-56
2022/06/14 15:34:55;;;;;;;7.30;3.93;;;;;;;;;;5080389;28;20184;-52
2022/06/14 15:37:26;;;;;;;7.73;3.00;;;;;;;;;;5062511;28;20211;-53